createdAt,value
2023-01-30T00:03:39.765Z,82.67
2023-01-30T00:08:39.762Z,83.40
2023-01-30T00:13:39.756Z,83.93
2023-01-30T00:18:39.732Z,83.09
2023-01-30T00:23:39.711Z,83.09
2023-01-30T00:28:39.745Z,83.30
2023-01-30T00:33:39.702Z,82.78
2023-01-30T00:38:39.692Z,83.20
2023-01-30T00:43:39.646Z,83.16
2023-01-30T00:48:39.631Z,83.16
2023-01-30T00:53:39.610Z,82.84
2023-01-30T00:58:39.599Z,82.43
2023-01-30T01:03:39.587Z,82.74
2023-01-30T01:08:39.579Z,82.64
2023-01-30T01:13:39.533Z,83.37
2023-01-30T01:18:39.533Z,82.64
2023-01-30T01:23:39.483Z,83.37
2023-01-30T01:28:39.469Z,83.37
2023-01-30T01:33:39.459Z,83.06
2023-01-30T01:38:39.451Z,83.16
2023-01-30T01:43:39.438Z,82.95
2023-01-30T01:48:39.432Z,83.37
2023-01-30T01:53:39.386Z,83.64
2023-01-30T01:58:39.376Z,84.31
2023-01-30T02:03:39.380Z,84.41
2023-01-30T02:08:39.331Z,84.69
2023-01-30T02:13:39.282Z,84.38
2023-01-30T02:18:39.260Z,84.17
2023-01-30T02:23:39.217Z,84.79
2023-01-30T02:28:39.200Z,84.79
2023-01-30T02:33:39.176Z,84.89
2023-01-30T02:38:39.149Z,84.58
2023-01-30T02:43:39.114Z,84.69
2023-01-30T02:48:39.107Z,84.89
2023-01-30T02:53:39.072Z,84.48
2023-01-30T02:58:39.037Z,84.48
2023-01-30T03:03:39.003Z,85.35
2023-01-30T03:08:38.967Z,85.04
2023-01-30T03:13:41.596Z,85.31
2023-01-30T03:18:38.911Z,85.31
2023-01-30T03:23:38.898Z,85.42
2023-01-30T03:28:38.875Z,85.94
2023-01-30T03:33:38.851Z,85.73
2023-01-30T03:38:38.811Z,85.38
2023-01-30T03:43:38.772Z,86.84
2023-01-30T03:48:38.750Z,86.99
2023-01-30T03:53:38.712Z,87.05
2023-01-30T03:58:38.702Z,88.30
2023-01-30T04:03:38.669Z,88.65
2023-01-30T04:08:38.637Z,88.87
2023-01-30T04:13:38.600Z,88.76
2023-01-30T04:18:38.570Z,89.03
2023-01-30T04:23:38.574Z,88.62
2023-01-30T04:28:38.546Z,88.93
2023-01-30T04:33:38.630Z,89.41
2023-01-30T04:38:38.483Z,89.51
2023-01-30T04:43:38.516Z,88.37
2023-01-30T04:48:38.439Z,88.57
2023-01-30T04:53:38.415Z,88.99
2023-01-30T04:58:38.384Z,89.10
2023-01-30T05:03:38.365Z,89.62
2023-01-30T05:08:38.330Z,89.83
2023-01-30T05:13:38.298Z,91.08
2023-01-30T05:18:38.273Z,92.96
2023-01-30T05:23:38.247Z,94.63
2023-01-30T05:28:38.225Z,95.88
2023-01-30T05:33:38.195Z,96.30
2023-01-30T05:38:38.160Z,96.50
2023-01-30T05:43:38.129Z,96.82
2023-01-30T05:48:38.093Z,96.82
2023-01-30T05:53:38.053Z,97.13
2023-01-30T05:58:38.019Z,97.86
2023-01-30T06:03:38.033Z,97.92
2023-01-30T06:08:37.976Z,98.13
2023-01-30T06:13:37.961Z,98.55
2023-01-30T06:18:37.967Z,98.44
2023-01-30T06:23:37.910Z,98.39
2023-01-30T06:28:37.869Z,98.71
2023-01-30T06:33:38.630Z,98.60
2023-01-30T06:38:37.801Z,98.35
2023-01-30T06:43:37.770Z,98.56
2023-01-30T06:48:37.742Z,98.66
2023-01-30T06:53:37.720Z,98.20
2023-01-30T06:58:37.698Z,98.62
2023-01-30T07:03:37.627Z,98.93
2023-01-30T07:08:37.615Z,98.83
2023-01-30T07:13:37.611Z,98.78
2023-01-30T07:18:37.552Z,98.57
2023-01-30T07:23:37.561Z,98.68
2023-01-30T07:28:49.699Z,98.57
2023-01-30T07:33:41.784Z,98.22
2023-01-30T07:52:50.110Z,98.01
2023-01-30T07:52:54.896Z,97.13
2023-01-30T08:12:00.115Z,96.98
2023-01-30T08:12:05.233Z,96.25
2023-01-30T08:17:11.714Z,96.42
2023-01-30T08:24:17.617Z,97.04
2023-01-30T08:27:06.561Z,97.45
2023-01-30T08:32:05.901Z,97.31
2023-01-30T08:38:09.227Z,97.37
2023-01-30T08:42:04.722Z,97.06
2023-01-30T08:53:12.019Z,97.27
2023-01-30T08:53:17.042Z,97.06
2023-01-30T08:58:16.770Z,96.39
2023-01-30T09:13:23.385Z,96.39
2023-01-30T09:17:33.494Z,97.64
2023-01-30T09:18:29.772Z,97.58
2023-01-30T09:23:31.390Z,96.54
2023-01-30T09:28:29.769Z,96.33
2023-01-30T09:33:36.822Z,95.96
2023-01-30T09:38:32.251Z,96.06
2023-01-30T09:43:29.577Z,94.67
2023-01-30T09:48:29.542Z,94.01
2023-01-30T09:57:34.907Z,95.36
2023-01-30T09:58:31.148Z,95.36
2023-01-30T10:03:33.024Z,95.56
2023-01-30T10:14:40.592Z,96.33
2023-01-30T10:14:45.400Z,96.14
2023-01-30T10:19:53.016Z,95.47
2023-01-30T10:24:48.065Z,94.85
2023-01-30T10:29:53.084Z,93.66
2023-01-30T10:34:47.159Z,92.53
2023-01-30T10:39:55.018Z,93.04
2023-01-30T10:44:54.844Z,91.35
2023-01-30T10:55:48.437Z,91.55
2023-01-30T10:55:53.229Z,90.41
2023-01-30T11:00:57.657Z,89.34
2023-01-30T11:06:07.926Z,88.74
2023-01-30T11:11:23.826Z,86.01
2023-01-30T11:24:00.359Z,86.88
2023-01-30T11:24:05.103Z,84.91
2023-01-30T11:29:05.129Z,84.08
2023-01-30T11:34:05.067Z,87.06
2023-01-30T11:39:05.064Z,89.31
2023-01-30T11:44:05.063Z,90.97
2023-01-30T11:49:46.461Z,90.04
2023-01-30T11:54:07.650Z,89.69
2023-01-30T11:59:04.963Z,88.36
2023-01-30T12:04:04.947Z,88.88
2023-01-30T12:09:07.555Z,88.30
2023-01-30T12:14:04.890Z,88.51
2023-01-30T12:19:04.825Z,88.76
2023-01-30T12:24:04.801Z,88.20
2023-01-30T12:29:04.961Z,86.75
2023-01-30T12:34:04.800Z,86.75
2023-01-30T12:39:04.763Z,86.75
2023-01-30T12:44:04.771Z,87.16
2023-01-30T12:49:10.980Z,86.88
2023-01-30T12:55:49.943Z,85.78
2023-01-30T12:59:04.653Z,87.95
2023-01-30T13:04:06.165Z,87.02
2023-01-30T13:09:04.616Z,87.33
2023-01-30T13:14:04.586Z,86.19
2023-01-30T13:19:04.573Z,84.87
2023-01-30T13:24:09.176Z,84.60
2023-01-30T13:29:04.506Z,84.08
2023-01-30T13:34:04.466Z,83.25
2023-01-30T13:39:04.442Z,82.32
2023-01-30T13:44:04.437Z,82.84
2023-01-30T13:49:04.395Z,86.29
2023-01-30T13:54:04.372Z,88.86
2023-01-30T13:59:04.353Z,91.28
2023-01-30T14:04:04.457Z,92.82
2023-01-30T14:09:04.287Z,94.73
2023-01-30T14:14:07.011Z,94.63
2023-01-30T14:19:05.238Z,95.00
2023-01-30T14:24:04.217Z,94.21
2023-01-30T14:29:05.743Z,94.53
2023-01-30T14:34:05.685Z,94.21
2023-01-30T14:39:04.128Z,93.07
2023-01-30T14:44:07.599Z,93.02
2023-01-30T14:49:08.563Z,92.66
2023-01-30T14:54:04.119Z,92.03
2023-01-30T14:59:06.716Z,89.36
2023-01-30T15:04:04.021Z,89.87
2023-01-30T15:09:04.005Z,90.54
2023-01-30T15:15:05.055Z,90.95
2023-01-30T15:19:03.977Z,92.51
2023-01-30T15:24:03.913Z,95.29
2023-01-30T15:29:05.682Z,96.83
2023-01-30T15:34:03.854Z,97.45
2023-01-30T15:39:03.860Z,97.71
2023-01-30T15:44:10.192Z,98.59
2023-01-30T15:49:03.787Z,98.90
2023-01-30T15:54:03.760Z,98.80
2023-01-30T15:59:03.745Z,98.43
2023-01-30T16:04:03.695Z,98.94
2023-01-30T16:09:03.659Z,98.27
2023-01-30T16:14:03.632Z,98.65
2023-01-30T16:19:03.583Z,97.56
2023-01-30T16:24:03.540Z,97.56
2023-01-30T16:29:03.525Z,97.00
2023-01-30T16:34:03.530Z,94.98
2023-01-30T16:39:03.513Z,94.78
2023-01-30T16:44:03.463Z,95.92
2023-01-30T16:49:03.407Z,95.19
2023-01-30T16:54:03.402Z,94.53
2023-01-30T16:59:03.383Z,94.63
2023-01-30T17:04:03.326Z,94.94
2023-01-30T17:09:03.276Z,94.32
2023-01-30T17:14:03.270Z,94.53
2023-01-30T17:19:03.241Z,92.86
2023-01-30T17:24:03.218Z,93.59
2023-01-30T17:29:03.199Z,93.59
2023-01-30T17:34:03.193Z,93.13
2023-01-30T17:39:03.176Z,93.38
2023-01-30T17:44:03.169Z,93.59
2023-01-30T17:49:03.121Z,93.07
2023-01-30T17:54:03.079Z,92.82
2023-01-30T17:59:03.030Z,92.82
2023-01-30T18:04:03.043Z,92.20
2023-01-30T18:09:02.999Z,91.16
2023-01-30T18:14:02.943Z,91.78
2023-01-30T18:19:02.934Z,90.64
2023-01-30T18:24:02.918Z,90.54
2023-01-30T18:29:02.864Z,89.92
2023-01-30T18:34:02.875Z,89.61
2023-01-30T18:39:02.822Z,90.12
2023-01-30T18:44:02.833Z,89.09
2023-01-30T18:49:02.796Z,89.71
2023-01-30T18:54:02.815Z,89.09
2023-01-30T18:59:02.739Z,89.40
2023-01-30T19:04:02.764Z,89.81
2023-01-30T19:09:02.692Z,89.54
2023-01-30T19:14:02.681Z,89.75
2023-01-30T19:19:02.651Z,89.86
2023-01-30T19:24:02.628Z,88.67
2023-01-30T19:29:02.639Z,89.40
2023-01-30T19:34:02.566Z,89.29
2023-01-30T19:39:02.535Z,88.92
2023-01-30T19:44:02.491Z,88.82
2023-01-30T19:49:03.208Z,89.23
2023-01-30T19:54:02.423Z,88.65
2023-01-30T19:59:02.381Z,87.30
2023-01-30T20:04:02.369Z,87.78
2023-01-30T20:09:02.326Z,87.30
2023-01-30T20:14:02.309Z,86.78
2023-01-30T20:19:02.275Z,86.78
2023-01-30T20:24:02.244Z,86.36
2023-01-30T20:29:02.209Z,86.16
2023-01-30T20:34:02.193Z,85.12
2023-01-30T20:39:02.155Z,83.98
2023-01-30T20:44:02.111Z,83.98
2023-01-30T20:49:03.229Z,83.46
2023-01-30T20:54:02.051Z,84.08
2023-01-30T20:59:02.397Z,85.02
2023-01-30T21:04:01.985Z,86.47
2023-01-30T21:09:02.432Z,85.53
2023-01-30T21:14:02.137Z,85.02
2023-01-30T21:19:03.721Z,83.63
2023-01-30T21:24:01.895Z,83.67
2023-01-30T21:29:01.888Z,82.63
2023-01-30T21:34:01.810Z,82.11
2023-01-30T21:39:01.767Z,82.56
2023-01-30T21:44:01.727Z,83.39
2023-01-30T21:49:01.707Z,84.33
2023-01-30T21:54:01.668Z,85.47
2023-01-30T21:59:01.720Z,85.93
2023-01-30T22:04:01.676Z,87.48
2023-01-30T22:09:01.610Z,88.42
2023-01-30T22:14:01.648Z,89.25
2023-01-30T22:19:01.573Z,89.87
2023-01-30T22:24:02.152Z,90.54
2023-01-30T22:29:01.585Z,91.16
2023-01-30T22:34:01.498Z,91.47
2023-01-30T22:39:01.801Z,91.27
2023-01-30T22:44:01.437Z,90.64
2023-01-30T22:49:01.360Z,90.64
2023-01-30T22:54:01.313Z,90.33
2023-01-30T22:59:01.285Z,89.60
2023-01-30T23:04:01.278Z,88.87
2023-01-30T23:09:01.291Z,88.98
2023-01-30T23:14:01.228Z,88.46
2023-01-30T23:19:01.187Z,88.10
2023-01-30T23:24:01.181Z,87.38
2023-01-30T23:29:01.107Z,86.19
2023-01-30T23:34:01.082Z,86.65
2023-01-30T23:39:01.062Z,86.03
2023-01-30T23:44:01.035Z,85.47
2023-01-30T23:49:01.043Z,85.36
2023-01-30T23:54:01.020Z,84.53
2023-01-30T23:59:00.947Z,84.95
